sensor_id;sensor_type;location;lat;lon;timestamp;P1;durP1;ratioP1;P2;durP2;ratioP2
31010;SDS011;26395;53.412;19.598;2024-01-16T00:01:53;9.10;;;2.20;;
31010;SDS011;26395;53.412;19.598;2024-01-16T00:16:58;6.70;;;3.10;;
31010;SDS011;26395;53.412;19.598;2024-01-16T00:32:01;10.50;;;2.20;;
31010;SDS011;26395;53.412;19.598;2024-01-16T00:47:04;5.20;;;2.20;;
31010;SDS011;26395;53.412;19.598;2024-01-16T01:02:08;4.70;;;1.50;;
31010;SDS011;26395;53.412;19.598;2024-01-16T01:17:15;5.40;;;1.50;;
31010;SDS011;26395;53.412;19.598;2024-01-16T01:32:19;6.10;;;2.70;;
31010;SDS011;26395;53.412;19.598;2024-01-16T01:47:26;15.10;;;5.40;;
31010;SDS011;26395;53.412;19.598;2024-01-16T02:02:31;20.20;;;6.60;;
31010;SDS011;26395;53.412;19.598;2024-01-16T02:17:35;5.40;;;3.20;;
31010;SDS011;26395;53.412;19.598;2024-01-16T02:32:38;7.40;;;2.80;;
31010;SDS011;26395;53.412;19.598;2024-01-16T02:47:42;3.00;;;1.50;;
31010;SDS011;26395;53.412;19.598;2024-01-16T03:02:45;2.10;;;1.10;;
31010;SDS011;26395;53.412;19.598;2024-01-16T03:17:49;1.20;;;0.80;;
31010;SDS011;26395;53.412;19.598;2024-01-16T03:32:52;1.10;;;1.10;;
31010;SDS011;26395;53.412;19.598;2024-01-16T03:47:56;4.30;;;1.80;;
31010;SDS011;26395;53.412;19.598;2024-01-16T04:03:00;2.20;;;1.40;;
31010;SDS011;26395;53.412;19.598;2024-01-16T04:18:05;6.10;;;1.80;;
31010;SDS011;26395;53.412;19.598;2024-01-16T04:33:09;5.30;;;1.70;;
31010;SDS011;26395;53.412;19.598;2024-01-16T04:48:14;4.60;;;2.20;;
31010;SDS011;26395;53.412;19.598;2024-01-16T05:03:22;4.10;;;1.30;;
31010;SDS011;26395;53.412;19.598;2024-01-16T05:18:36;7.50;;;1.50;;
31010;SDS011;26395;53.412;19.598;2024-01-16T05:33:40;4.30;;;2.40;;
31010;SDS011;26395;53.412;19.598;2024-01-16T05:48:46;30.40;;;8.80;;
31010;SDS011;26395;53.412;19.598;2024-01-16T06:03:50;21.80;;;6.70;;
31010;SDS011;26395;53.412;19.598;2024-01-16T06:18:54;18.90;;;6.40;;
31010;SDS011;26395;53.412;19.598;2024-01-16T06:33:57;5.00;;;2.10;;
31010;SDS011;26395;53.412;19.598;2024-01-16T06:49:01;11.20;;;5.40;;
31010;SDS011;26395;53.412;19.598;2024-01-16T07:04:07;19.50;;;7.30;;
31010;SDS011;26395;53.412;19.598;2024-01-16T07:19:10;15.60;;;8.10;;
31010;SDS011;26395;53.412;19.598;2024-01-16T07:34:15;28.30;;;8.80;;
31010;SDS011;26395;53.412;19.598;2024-01-16T07:49:23;53.00;;;20.80;;
31010;SDS011;26395;53.412;19.598;2024-01-16T08:04:28;53.00;;;20.00;;
31010;SDS011;26395;53.412;19.598;2024-01-16T08:19:32;22.80;;;10.20;;
31010;SDS011;26395;53.412;19.598;2024-01-16T08:34:36;13.50;;;6.90;;
31010;SDS011;26395;53.412;19.598;2024-01-16T08:49:40;10.60;;;3.90;;
31010;SDS011;26395;53.412;19.598;2024-01-16T09:04:47;18.00;;;5.20;;
31010;SDS011;26395;53.412;19.598;2024-01-16T09:19:54;9.00;;;5.30;;
31010;SDS011;26395;53.412;19.598;2024-01-16T09:34:58;12.00;;;5.40;;
31010;SDS011;26395;53.412;19.598;2024-01-16T09:50:02;8.90;;;4.90;;
31010;SDS011;26395;53.412;19.598;2024-01-16T10:05:07;31.80;;;17.30;;
31010;SDS011;26395;53.412;19.598;2024-01-16T10:20:12;36.40;;;20.80;;
31010;SDS011;26395;53.412;19.598;2024-01-16T10:35:17;60.90;;;24.70;;
31010;SDS011;26395;53.412;19.598;2024-01-16T10:50:24;26.70;;;13.10;;
31010;SDS011;26395;53.412;19.598;2024-01-16T11:05:28;16.50;;;6.60;;
31010;SDS011;26395;53.412;19.598;2024-01-16T11:20:38;22.80;;;9.70;;
31010;SDS011;26395;53.412;19.598;2024-01-16T11:35:48;41.40;;;11.90;;
31010;SDS011;26395;53.412;19.598;2024-01-16T11:50:54;39.80;;;13.00;;
31010;SDS011;26395;53.412;19.598;2024-01-16T12:05:58;17.40;;;6.30;;
31010;SDS011;26395;53.412;19.598;2024-01-16T12:36:32;95.20;;;31.40;;
31010;SDS011;26395;53.412;19.598;2024-01-16T12:51:36;66.00;;;22.80;;
31010;SDS011;26395;53.412;19.598;2024-01-16T13:06:39;73.90;;;31.20;;
31010;SDS011;26395;53.412;19.598;2024-01-16T13:21:48;23.80;;;11.10;;
31010;SDS011;26395;53.412;19.598;2024-01-16T13:36:52;597.70;;;218.70;;
31010;SDS011;26395;53.412;19.598;2024-01-16T13:52:17;71.50;;;23.30;;
31010;SDS011;26395;53.412;19.598;2024-01-16T14:07:23;176.00;;;47.50;;
31010;SDS011;26395;53.412;19.598;2024-01-16T14:22:27;75.20;;;24.80;;
31010;SDS011;26395;53.412;19.598;2024-01-16T14:37:33;53.30;;;20.10;;
31010;SDS011;26395;53.412;19.598;2024-01-16T14:52:41;111.70;;;37.90;;
31010;SDS011;26395;53.412;19.598;2024-01-16T15:07:45;55.90;;;17.80;;
31010;SDS011;26395;53.412;19.598;2024-01-16T15:22:49;123.90;;;39.60;;
31010;SDS011;26395;53.412;19.598;2024-01-16T15:37:56;111.10;;;34.60;;
31010;SDS011;26395;53.412;19.598;2024-01-16T15:53:02;67.30;;;23.00;;
31010;SDS011;26395;53.412;19.598;2024-01-16T16:08:06;163.90;;;44.40;;
31010;SDS011;26395;53.412;19.598;2024-01-16T16:23:11;391.80;;;104.60;;
31010;SDS011;26395;53.412;19.598;2024-01-16T16:38:19;321.30;;;76.30;;
31010;SDS011;26395;53.412;19.598;2024-01-16T16:53:23;392.50;;;93.60;;
31010;SDS011;26395;53.412;19.598;2024-01-16T17:08:38;726.30;;;230.40;;
31010;SDS011;26395;53.412;19.598;2024-01-16T17:23:44;521.90;;;148.10;;
31010;SDS011;26395;53.412;19.598;2024-01-16T17:38:49;222.50;;;61.10;;
31010;SDS011;26395;53.412;19.598;2024-01-16T17:53:59;578.30;;;144.80;;
31010;SDS011;26395;53.412;19.598;2024-01-16T18:09:05;176.10;;;43.80;;
31010;SDS011;26395;53.412;19.598;2024-01-16T18:24:25;230.00;;;58.10;;
31010;SDS011;26395;53.412;19.598;2024-01-16T18:39:31;267.00;;;86.00;;
31010;SDS011;26395;53.412;19.598;2024-01-16T18:54:35;158.60;;;51.30;;
31010;SDS011;26395;53.412;19.598;2024-01-16T19:09:39;141.20;;;40.80;;
31010;SDS011;26395;53.412;19.598;2024-01-16T19:24:47;280.90;;;72.10;;
31010;SDS011;26395;53.412;19.598;2024-01-16T19:39:50;189.20;;;51.80;;
31010;SDS011;26395;53.412;19.598;2024-01-16T19:54:56;219.80;;;62.70;;
31010;SDS011;26395;53.412;19.598;2024-01-16T20:10:03;193.40;;;57.10;;
31010;SDS011;26395;53.412;19.598;2024-01-16T20:25:09;161.50;;;44.30;;
31010;SDS011;26395;53.412;19.598;2024-01-16T20:40:16;171.40;;;57.30;;
31010;SDS011;26395;53.412;19.598;2024-01-16T20:55:20;272.20;;;81.20;;
31010;SDS011;26395;53.412;19.598;2024-01-16T21:10:24;428.00;;;128.20;;
31010;SDS011;26395;53.412;19.598;2024-01-16T21:25:27;490.20;;;148.40;;
31010;SDS011;26395;53.412;19.598;2024-01-16T21:40:34;523.50;;;163.30;;
31010;SDS011;26395;53.412;19.598;2024-01-16T21:55:38;165.30;;;43.60;;
31010;SDS011;26395;53.412;19.598;2024-01-16T22:10:42;169.20;;;42.70;;
31010;SDS011;26395;53.412;19.598;2024-01-16T22:25:46;504.80;;;114.90;;
31010;SDS011;26395;53.412;19.598;2024-01-16T22:40:50;302.50;;;72.60;;
31010;SDS011;26395;53.412;19.598;2024-01-16T22:55:55;207.00;;;46.10;;
31010;SDS011;26395;53.412;19.598;2024-01-16T23:10:59;180.50;;;42.70;;
31010;SDS011;26395;53.412;19.598;2024-01-16T23:26:03;136.00;;;41.60;;
31010;SDS011;26395;53.412;19.598;2024-01-16T23:41:07;188.40;;;46.30;;
31010;SDS011;26395;53.412;19.598;2024-01-16T23:56:13;159.90;;;38.70;;
